Terminal Aerodrome Forecast
Issued by NWS Lake Charles, LA

Home | Current Version | Previous Version | Text Only | Print | Product List | Glossary On
Versions: 1 2 3 4 5 6 7 8 9 10 11 12 13 14 15 16
000
FTUS44 KLCH 012300
TAFLFT
TAF
KLFT 012320Z 0200/0224 18010KT 6SM BR VCSH OVC025
      TEMPO 0200/0204 3SM SHRA BR OVC008
     FM020400 15006KT 3SM BR VCSH OVC008
      TEMPO 0204/0208 1SM BR OVC004
     FM020800 12004KT 1SM BR OVC004
     FM021600 12008KT 4SM BR VCSH OVC008=

USA.gov is the U.S. government's official web portal to all federal, state and local government web resources and services.